createdAt,value
2017-07-27T00:00:13.989Z,99.99
2017-07-27T00:01:14.052Z,99.99
2017-07-27T00:02:14.070Z,99.99
2017-07-27T00:03:14.089Z,99.99
2017-07-27T00:04:14.152Z,99.99
2017-07-27T00:05:14.180Z,99.99
2017-07-27T00:06:14.201Z,99.99
2017-07-27T00:07:14.222Z,99.99
2017-07-27T00:08:14.299Z,99.99
2017-07-27T00:09:14.294Z,99.99
2017-07-27T00:10:14.357Z,99.99
2017-07-27T00:11:14.396Z,99.99
2017-07-27T00:12:14.390Z,99.99
2017-07-27T00:13:14.436Z,99.99
2017-07-27T00:14:14.490Z,99.99
2017-07-27T00:15:14.493Z,99.99
2017-07-27T00:16:14.550Z,99.99
2017-07-27T00:17:14.592Z,99.99
2017-07-27T00:18:14.589Z,99.99
2017-07-27T00:19:14.665Z,99.99
2017-07-27T00:20:14.701Z,99.99
2017-07-27T00:21:14.711Z,99.99
2017-07-27T00:22:14.764Z,99.99
2017-07-27T00:23:14.789Z,99.99
2017-07-27T00:24:14.798Z,99.99
2017-07-27T00:25:14.850Z,99.99
2017-07-27T00:26:14.903Z,99.99
2017-07-27T00:27:14.899Z,99.99
2017-07-27T00:28:14.992Z,99.99
2017-07-27T00:29:15.001Z,99.99
2017-07-27T00:30:14.996Z,99.99
2017-07-27T00:31:15.065Z,99.99
2017-07-27T00:32:15.095Z,99.99
2017-07-27T00:33:15.107Z,99.99
2017-07-27T00:34:15.190Z,99.99
2017-07-27T00:35:15.218Z,99.99
2017-07-27T00:36:15.255Z,99.99
2017-07-27T00:37:15.239Z,99.99
2017-07-27T00:38:15.301Z,99.99
2017-07-27T00:39:15.306Z,99.99
2017-07-27T00:40:15.346Z,99.99
2017-07-27T00:41:15.379Z,99.99
2017-07-27T00:42:15.435Z,99.99
2017-07-27T00:43:15.445Z,99.99
2017-07-27T00:44:15.504Z,99.99
2017-07-27T00:45:15.519Z,99.99
2017-07-27T00:46:15.567Z,99.99
2017-07-27T00:47:15.632Z,99.99
2017-07-27T00:48:15.629Z,99.99
2017-07-27T00:49:15.686Z,99.99
2017-07-27T00:50:15.703Z,99.99
2017-07-27T00:51:15.740Z,99.99
2017-07-27T00:52:15.744Z,99.99
2017-07-27T00:53:15.808Z,99.99
2017-07-27T00:54:15.809Z,99.99
2017-07-27T00:55:15.897Z,99.99
2017-07-27T00:56:15.901Z,99.99
2017-07-27T00:57:15.937Z,99.99
2017-07-27T00:58:15.940Z,99.99
2017-07-27T00:59:16.006Z,99.99
2017-07-27T01:00:16.013Z,99.99
2017-07-27T01:01:16.079Z,99.99
2017-07-27T01:02:16.108Z,99.99
2017-07-27T01:03:16.141Z,99.99
2017-07-27T01:04:16.170Z,99.99
2017-07-27T01:05:16.210Z,99.99
2017-07-27T01:06:16.217Z,99.99
2017-07-27T01:07:16.269Z,99.99
2017-07-27T01:08:16.302Z,99.99
2017-07-27T01:09:16.340Z,99.99
2017-07-27T01:10:16.337Z,99.99
2017-07-27T01:11:16.406Z,99.99
2017-07-27T01:12:16.437Z,99.99
2017-07-27T01:13:16.498Z,99.99
2017-07-27T01:14:16.487Z,99.99
2017-07-27T01:15:16.524Z,99.99
2017-07-27T01:16:16.553Z,99.99
2017-07-27T01:17:16.638Z,99.99
2017-07-27T01:18:16.646Z,99.99
2017-07-27T01:19:16.681Z,99.99
2017-07-27T01:20:16.686Z,99.99
2017-07-27T01:21:16.717Z,99.99
2017-07-27T01:22:16.774Z,99.99
2017-07-27T01:23:16.805Z,99.99
2017-07-27T01:24:16.846Z,99.99
2017-07-27T01:25:16.859Z,99.99
2017-07-27T01:26:16.930Z,99.99
2017-07-27T01:27:16.952Z,99.99
2017-07-27T01:28:16.955Z,99.99
2017-07-27T01:29:17.014Z,99.99
2017-07-27T01:30:17.047Z,99.99
2017-07-27T01:31:17.078Z,99.99
2017-07-27T01:32:17.089Z,99.99
2017-07-27T01:33:17.172Z,99.99
2017-07-27T01:34:17.156Z,99.99
2017-07-27T01:35:17.190Z,99.99
2017-07-27T01:36:17.252Z,99.99
2017-07-27T01:37:17.289Z,99.99
2017-07-27T01:38:17.289Z,99.99
2017-07-27T01:39:17.352Z,99.99
2017-07-27T01:40:17.386Z,99.99
2017-07-27T01:41:17.390Z,99.99
2017-07-27T01:42:17.451Z,99.99
2017-07-27T01:43:17.460Z,99.99
2017-07-27T01:44:17.492Z,99.99
2017-07-27T01:45:17.549Z,99.99
2017-07-27T01:46:17.598Z,99.99
2017-07-27T01:47:17.586Z,99.99
2017-07-27T01:48:17.673Z,99.99
2017-07-27T01:49:17.681Z,99.99
2017-07-27T01:50:17.695Z,99.99
2017-07-27T01:51:17.786Z,99.99
2017-07-27T01:52:17.790Z,99.99
2017-07-27T01:53:17.791Z,99.99
2017-07-27T01:54:17.854Z,99.99
2017-07-27T01:55:17.866Z,99.99
2017-07-27T01:56:17.890Z,99.99
2017-07-27T01:57:17.959Z,99.99
2017-07-27T01:58:17.988Z,99.99
2017-07-27T01:59:17.990Z,99.99
2017-07-27T02:00:18.280Z,99.99
2017-07-27T02:01:18.106Z,99.99
2017-07-27T02:02:18.097Z,99.99
2017-07-27T02:03:18.159Z,99.99
2017-07-27T02:04:18.191Z,99.99
2017-07-27T02:05:18.196Z,99.99
2017-07-27T02:06:18.258Z,99.99
2017-07-27T02:07:18.291Z,99.99
2017-07-27T02:08:18.288Z,99.99
2017-07-27T02:09:18.356Z,99.99
2017-07-27T02:10:18.394Z,99.99
2017-07-27T02:11:18.388Z,99.99
2017-07-27T02:12:18.462Z,99.99
2017-07-27T02:13:18.490Z,99.99
2017-07-27T02:14:18.554Z,99.99
2017-07-27T02:15:18.558Z,99.99
2017-07-27T02:16:18.590Z,99.99
2017-07-27T02:17:18.587Z,99.99
2017-07-27T02:18:18.681Z,99.99
2017-07-27T02:19:18.687Z,99.99
2017-07-27T02:20:18.700Z,99.99
2017-07-27T02:21:18.764Z,99.99
2017-07-27T02:22:18.807Z,99.99
2017-07-27T02:23:18.788Z,99.99
2017-07-27T02:24:18.837Z,99.99
2017-07-27T02:25:18.897Z,99.99
2017-07-27T02:26:18.889Z,99.99
2017-07-27T02:27:18.936Z,99.99
2017-07-27T02:28:18.992Z,99.99
2017-07-27T02:29:18.996Z,99.99
2017-07-27T02:30:19.049Z,99.99
2017-07-27T02:31:19.090Z,99.99
2017-07-27T02:32:19.098Z,99.99
2017-07-27T02:33:19.184Z,99.99
2017-07-27T02:34:19.196Z,99.99
2017-07-27T02:35:19.193Z,99.99
2017-07-27T02:36:19.248Z,99.99
2017-07-27T02:37:19.291Z,99.99
2017-07-27T02:38:19.292Z,99.99
2017-07-27T02:39:19.359Z,99.99
2017-07-27T02:40:19.387Z,99.99
2017-07-27T02:41:19.394Z,99.99
2017-07-27T02:42:19.457Z,99.99
2017-07-27T02:43:19.499Z,99.99
2017-07-27T02:44:19.497Z,99.99
2017-07-27T02:45:19.564Z,99.99
2017-07-27T02:46:19.558Z,99.99
2017-07-27T02:47:19.595Z,99.99
2017-07-27T02:48:19.662Z,99.99
2017-07-27T02:49:19.693Z,99.99
2017-07-27T02:50:19.690Z,99.99
2017-07-27T02:51:19.756Z,99.99
2017-07-27T02:52:19.795Z,99.99
2017-07-27T02:53:19.793Z,99.99
2017-07-27T02:54:19.855Z,99.99
2017-07-27T02:55:19.891Z,99.99
2017-07-27T02:56:19.889Z,99.99
2017-07-27T02:57:19.938Z,99.99
2017-07-27T02:58:19.987Z,99.99
2017-07-27T02:59:19.997Z,99.99
2017-07-27T03:00:20.043Z,99.99
2017-07-27T03:01:20.096Z,99.99
2017-07-27T03:02:20.102Z,99.99
2017-07-27T03:03:20.156Z,99.99
2017-07-27T03:04:20.197Z,99.99
2017-07-27T03:05:20.195Z,99.99
2017-07-27T03:06:20.259Z,99.99
2017-07-27T03:07:20.292Z,99.99
2017-07-27T03:08:20.288Z,99.99
2017-07-27T03:09:20.324Z,99.99
2017-07-27T03:10:20.408Z,99.99
2017-07-27T03:11:20.392Z,99.99
2017-07-27T03:12:20.480Z,99.99
2017-07-27T03:13:20.460Z,99.99
2017-07-27T03:14:20.493Z,99.99
2017-07-27T03:15:20.558Z,99.99
2017-07-27T03:16:20.588Z,99.99
2017-07-27T03:17:20.590Z,99.99
2017-07-27T03:18:20.653Z,99.99
2017-07-27T03:19:20.667Z,99.99
2017-07-27T03:20:20.685Z,99.99
2017-07-27T03:21:20.749Z,99.99
2017-07-27T03:22:20.791Z,99.99
2017-07-27T03:23:20.808Z,99.99
2017-07-27T03:24:20.878Z,99.99
2017-07-27T03:25:20.885Z,99.99
2017-07-27T03:26:20.890Z,99.99
2017-07-27T03:27:20.977Z,99.99
2017-07-27T03:28:20.959Z,99.99
2017-07-27T03:29:20.987Z,99.99
2017-07-27T03:30:21.048Z,99.99
2017-07-27T03:31:21.058Z,99.99
2017-07-27T03:32:21.093Z,99.99
2017-07-27T03:33:21.170Z,99.99
2017-07-27T03:34:21.181Z,99.99
2017-07-27T03:35:21.232Z,99.99
2017-07-27T03:36:21.247Z,99.99
2017-07-27T03:37:21.301Z,99.99
2017-07-27T03:38:21.313Z,99.99
2017-07-27T03:39:21.318Z,99.99
2017-07-27T03:40:21.399Z,99.99
2017-07-27T03:41:21.408Z,99.99
2017-07-27T03:42:21.439Z,99.99
2017-07-27T03:43:21.451Z,99.99
2017-07-27T03:44:21.508Z,99.99
2017-07-27T03:45:21.545Z,99.99
2017-07-27T03:46:21.596Z,99.99
2017-07-27T03:47:21.633Z,99.99
2017-07-27T03:48:21.644Z,99.99
2017-07-27T03:49:21.672Z,99.99
2017-07-27T03:50:21.698Z,99.99
2017-07-27T03:51:21.740Z,99.99
2017-07-27T03:52:21.749Z,99.99
2017-07-27T03:53:21.796Z,99.99
2017-07-27T03:54:21.832Z,99.99
2017-07-27T03:55:21.895Z,99.99
2017-07-27T03:56:21.893Z,99.99
2017-07-27T03:57:21.932Z,99.99
2017-07-27T03:58:21.993Z,99.99
2017-07-27T03:59:22.010Z,99.99
2017-07-27T04:00:22.110Z,99.99
2017-07-27T04:01:22.055Z,99.99
2017-07-27T04:02:22.091Z,99.99
2017-07-27T04:03:22.089Z,99.99
2017-07-27T04:04:22.145Z,99.99
2017-07-27T04:05:22.281Z,99.99
2017-07-27T04:06:22.200Z,99.99
2017-07-27T04:07:22.226Z,99.99
2017-07-27T04:08:22.272Z,99.99
2017-07-27T04:09:22.289Z,99.99
2017-07-27T04:10:22.343Z,99.99
2017-07-27T04:11:22.376Z,99.99
2017-07-27T04:12:22.401Z,99.99
2017-07-27T04:13:22.441Z,99.99
2017-07-27T04:14:22.473Z,99.99
2017-07-27T04:15:22.506Z,99.99
2017-07-27T04:16:22.541Z,99.99
2017-07-27T04:17:22.569Z,99.99
2017-07-27T04:18:22.603Z,99.99
2017-07-27T04:19:22.653Z,99.99
2017-07-27T04:20:22.668Z,99.99
2017-07-27T04:21:22.702Z,99.99
2017-07-27T04:22:22.735Z,99.99
2017-07-27T04:23:22.771Z,99.99
2017-07-27T04:24:22.801Z,99.99
2017-07-27T04:25:22.834Z,99.99
2017-07-27T04:26:22.867Z,99.99
2017-07-27T04:27:22.893Z,99.99
2017-07-27T04:28:22.934Z,99.99
2017-07-27T04:29:22.967Z,99.99
2017-07-27T04:30:22.997Z,99.99
2017-07-27T04:31:23.029Z,99.99
2017-07-27T04:32:23.062Z,99.99
2017-07-27T04:33:23.098Z,99.99
2017-07-27T04:34:23.130Z,99.99
2017-07-27T04:35:23.160Z,99.99
2017-07-27T04:36:23.199Z,99.99
2017-07-27T04:37:23.205Z,99.99
2017-07-27T04:38:23.263Z,99.99
2017-07-27T04:39:23.294Z,99.99
2017-07-27T04:40:23.330Z,99.99
2017-07-27T04:41:23.359Z,99.99
2017-07-27T04:42:23.392Z,99.99
2017-07-27T04:43:23.425Z,99.99
2017-07-27T04:44:23.456Z,99.99
2017-07-27T04:45:23.492Z,99.99
2017-07-27T04:46:23.526Z,99.99
2017-07-27T04:47:23.547Z,99.99
2017-07-27T04:48:23.600Z,99.99
2017-07-27T04:49:23.621Z,99.99
2017-07-27T04:50:23.656Z,99.99
2017-07-27T04:51:23.692Z,99.99
2017-07-27T04:52:23.730Z,99.99
2017-07-27T04:53:23.743Z,99.99
2017-07-27T04:54:23.794Z,99.99
2017-07-27T04:55:23.814Z,99.99
2017-07-27T04:56:23.856Z,99.99
2017-07-27T04:57:23.885Z,99.99
2017-07-27T04:58:23.916Z,99.99
2017-07-27T04:59:23.951Z,99.99
2017-07-27T05:00:23.986Z,99.99
2017-07-27T05:01:24.003Z,99.99
2017-07-27T05:02:24.256Z,99.99
2017-07-27T05:03:24.070Z,99.99
2017-07-27T05:04:24.115Z,99.99
2017-07-27T05:05:24.174Z,99.99
2017-07-27T05:06:24.180Z,99.99
2017-07-27T05:07:24.230Z,99.99
2017-07-27T05:08:24.420Z,99.99
2017-07-27T05:09:24.264Z,99.99
2017-07-27T05:10:24.485Z,99.99
2017-07-27T05:11:24.338Z,99.99
2017-07-27T05:12:24.392Z,99.99
2017-07-27T05:13:24.429Z,99.99
2017-07-27T05:14:24.452Z,99.99
2017-07-27T05:15:24.487Z,99.99
2017-07-27T05:16:24.530Z,99.99
2017-07-27T05:17:24.555Z,99.99
2017-07-27T05:18:24.594Z,99.99
2017-07-27T05:19:24.627Z,99.99
2017-07-27T05:20:24.655Z,99.99
2017-07-27T05:21:24.696Z,99.99
2017-07-27T05:22:24.720Z,99.99
2017-07-27T05:23:24.742Z,99.99
2017-07-27T05:24:24.779Z,99.99
2017-07-27T05:25:24.828Z,99.99
2017-07-27T05:26:24.849Z,99.99
2017-07-27T05:27:24.893Z,99.99
2017-07-27T05:28:24.928Z,99.99
2017-07-27T05:29:24.956Z,99.99
2017-07-27T05:30:25.350Z,99.99
2017-07-27T05:31:25.032Z,99.99
2017-07-27T05:32:25.056Z,99.99
2017-07-27T05:33:25.097Z,99.99
2017-07-27T05:34:25.133Z,99.99
2017-07-27T05:35:25.170Z,99.99
2017-07-27T05:36:25.205Z,99.99
2017-07-27T05:37:25.239Z,99.99
2017-07-27T05:38:25.254Z,99.99
2017-07-27T05:39:25.299Z,99.99
2017-07-27T05:40:25.349Z,99.99
2017-07-27T05:41:25.383Z,99.99
2017-07-27T05:42:25.402Z,99.99
2017-07-27T05:43:25.455Z,99.99
2017-07-27T05:44:25.493Z,99.99
2017-07-27T05:45:25.521Z,99.99
2017-07-27T05:46:25.564Z,99.99
2017-07-27T05:47:25.598Z,99.99
2017-07-27T05:48:25.634Z,99.99
2017-07-27T05:49:25.657Z,99.99
2017-07-27T05:50:25.707Z,99.99
2017-07-27T05:51:25.737Z,99.99
2017-07-27T05:52:25.760Z,99.99
2017-07-27T05:53:25.793Z,99.99
2017-07-27T05:54:25.861Z,99.99
2017-07-27T05:55:25.886Z,99.99
2017-07-27T05:56:25.923Z,99.99
2017-07-27T05:57:25.962Z,99.99
2017-07-27T05:58:25.998Z,99.99
2017-07-27T05:59:26.034Z,99.99
2017-07-27T06:00:26.061Z,99.99
2017-07-27T06:01:26.099Z,99.99
2017-07-27T06:02:26.139Z,99.99
2017-07-27T06:03:26.174Z,99.99
2017-07-27T06:04:26.216Z,99.99
2017-07-27T06:05:26.256Z,99.99
2017-07-27T06:06:26.270Z,99.99
2017-07-27T06:07:26.320Z,99.99
2017-07-27T06:08:26.362Z,99.99
2017-07-27T06:09:26.381Z,99.99
2017-07-27T06:10:26.436Z,99.99
2017-07-27T06:11:26.468Z,99.99
2017-07-27T06:12:26.505Z,99.99
2017-07-27T06:13:26.542Z,99.99
2017-07-27T06:14:26.571Z,99.99
2017-07-27T06:15:26.614Z,99.99
2017-07-27T06:16:26.666Z,99.99
2017-07-27T06:17:26.669Z,99.99
2017-07-27T06:18:26.723Z,99.99
2017-07-27T06:19:26.756Z,99.99
2017-07-27T06:20:26.793Z,99.99
2017-07-27T06:21:26.820Z,99.99
2017-07-27T06:22:26.870Z,99.99
2017-07-27T06:23:26.916Z,99.99
2017-07-27T06:24:26.947Z,99.99
2017-07-27T06:25:26.985Z,99.99
2017-07-27T06:26:27.004Z,99.99
2017-07-27T06:27:27.030Z,99.99
2017-07-27T06:28:27.068Z,99.99
2017-07-27T06:29:27.127Z,99.99
2017-07-27T06:30:27.471Z,99.99
2017-07-27T06:31:27.182Z,99.99
2017-07-27T06:32:27.245Z,99.99
2017-07-27T06:33:27.283Z,99.99
2017-07-27T06:34:27.301Z,99.99
2017-07-27T06:35:27.363Z,99.99
2017-07-27T06:36:27.395Z,99.99
2017-07-27T06:37:27.423Z,99.99
2017-07-27T06:38:27.489Z,99.99
2017-07-27T06:39:27.519Z,99.99
2017-07-27T06:40:27.555Z,99.99
2017-07-27T06:41:27.596Z,99.99
2017-07-27T06:42:27.640Z,99.99
2017-07-27T06:43:27.673Z,99.99
2017-07-27T06:44:27.725Z,99.99
2017-07-27T06:45:27.741Z,98.38
2017-07-27T06:46:27.795Z,99.01
2017-07-27T06:47:27.843Z,95.62
2017-07-27T06:48:27.956Z,95.62
2017-07-27T06:49:27.924Z,91.69
2017-07-27T06:50:27.970Z,87.99
2017-07-27T06:51:27.987Z,88.1
2017-07-27T06:52:28.049Z,84.36
2017-07-27T06:53:28.100Z,86.13
2017-07-27T06:54:28.138Z,85.34
2017-07-27T06:55:28.185Z,83.87
2017-07-27T06:56:28.223Z,86.36
2017-07-27T06:57:28.266Z,88.24
2017-07-27T06:58:28.298Z,81.98
2017-07-27T06:59:28.350Z,87.04
2017-07-27T07:00:28.399Z,88.27
2017-07-27T07:01:28.430Z,82.1
2017-07-27T07:02:28.471Z,83.78
2017-07-27T07:03:28.515Z,79.53
2017-07-27T07:04:28.562Z,79.77
2017-07-27T07:05:28.597Z,79.63
2017-07-27T07:06:28.676Z,82.1
2017-07-27T07:07:28.690Z,76.22
2017-07-27T07:08:28.736Z,77.7
2017-07-27T07:09:28.777Z,79.32
2017-07-27T07:10:28.820Z,80.11
2017-07-27T07:11:28.867Z,84.59
2017-07-27T07:12:28.898Z,78.07
2017-07-27T07:13:28.948Z,75.15
2017-07-27T07:14:28.992Z,78.01
2017-07-27T07:15:29.037Z,79.1
2017-07-27T07:16:29.172Z,74.55
2017-07-27T07:17:29.121Z,72.19
2017-07-27T07:18:29.164Z,74.99
2017-07-27T07:19:29.182Z,74.53
2017-07-27T07:20:29.235Z,75.52
2017-07-27T07:21:29.401Z,73.18
2017-07-27T07:22:29.341Z,71.73
2017-07-27T07:23:29.392Z,74.01
2017-07-27T07:24:29.446Z,72.62
2017-07-27T07:25:29.486Z,73.25
2017-07-27T07:26:29.506Z,69.02
2017-07-27T07:27:29.564Z,69.82
2017-07-27T07:28:29.589Z,64.44
2017-07-27T07:29:29.651Z,67.21
2017-07-27T07:30:29.702Z,67.28
2017-07-27T07:31:29.743Z,69.92
2017-07-27T07:32:29.794Z,70.12
2017-07-27T07:33:29.817Z,65.2
2017-07-27T07:34:29.874Z,65.4
2017-07-27T07:35:29.921Z,66.02
2017-07-27T07:36:29.968Z,65.23
2017-07-27T07:37:29.988Z,62.1
2017-07-27T07:38:30.060Z,61.96
2017-07-27T07:39:30.083Z,63.25
2017-07-27T07:40:30.144Z,67.21
2017-07-27T07:41:30.194Z,60.78
2017-07-27T07:42:30.235Z,56.23
2017-07-27T07:43:30.274Z,51.87
2017-07-27T07:44:30.331Z,53.11
2017-07-27T07:45:30.368Z,54.53
2017-07-27T07:46:30.400Z,50.68
2017-07-27T07:47:30.465Z,53.94
2017-07-27T07:48:30.503Z,54.83
2017-07-27T07:49:30.539Z,52.61
2017-07-27T07:50:30.596Z,50.06
2017-07-27T07:51:30.634Z,48.03
2017-07-27T07:52:30.692Z,47.53
2017-07-27T07:53:30.718Z,49.02
2017-07-27T07:54:30.778Z,51.42
2017-07-27T07:55:30.826Z,49.17
2017-07-27T07:56:30.872Z,49.81
2017-07-27T07:57:30.900Z,49.84
2017-07-27T07:58:30.968Z,48.07
2017-07-27T07:59:30.990Z,49.19
2017-07-27T08:00:31.030Z,48.11
2017-07-27T08:01:31.104Z,47.44
2017-07-27T08:02:31.148Z,48.04
2017-07-27T08:03:31.193Z,45.97
2017-07-27T08:04:31.232Z,45
2017-07-27T08:05:31.286Z,42.61
2017-07-27T08:06:31.328Z,44.08
2017-07-27T08:07:31.370Z,43.19
2017-07-27T08:08:31.438Z,44.68
2017-07-27T08:09:31.467Z,44.01
2017-07-27T08:10:31.500Z,43.6
2017-07-27T08:11:31.567Z,43.71
2017-07-27T08:12:31.592Z,44.32
2017-07-27T08:13:31.645Z,42.33
2017-07-27T08:14:31.706Z,42.75
2017-07-27T08:15:31.749Z,40.46
2017-07-27T08:16:31.812Z,41.06
2017-07-27T08:17:32.067Z,42.83
2017-07-27T08:18:31.884Z,41.93
2017-07-27T08:19:31.936Z,42.75
2017-07-27T08:20:31.979Z,42.75
2017-07-27T08:21:32.009Z,42.67
2017-07-27T08:22:32.171Z,42.67
2017-07-27T08:23:32.098Z,38.7
2017-07-27T08:24:32.168Z,41.69
2017-07-27T08:25:32.213Z,40.7
2017-07-27T08:26:32.262Z,39.4
2017-07-27T08:27:32.309Z,41
2017-07-27T08:28:32.355Z,41.82
2017-07-27T08:29:32.409Z,40.22
2017-07-27T08:30:32.444Z,40.06
2017-07-27T08:31:32.492Z,40.75
2017-07-27T08:32:32.540Z,38.87
2017-07-27T08:33:32.588Z,38.2
2017-07-27T08:34:32.641Z,39.59
2017-07-27T08:35:32.668Z,38.31
2017-07-27T08:36:32.735Z,39.41
2017-07-27T08:37:32.784Z,37.23
2017-07-27T08:38:32.811Z,35.75
2017-07-27T08:39:32.862Z,35.88
2017-07-27T08:40:32.910Z,35.98
2017-07-27T08:41:32.976Z,36
2017-07-27T08:42:33.014Z,36.2
2017-07-27T08:43:33.069Z,36.78
2017-07-27T08:44:33.104Z,36.76
2017-07-27T08:45:33.124Z,38.79
2017-07-27T08:46:33.214Z,40.68
2017-07-27T08:47:33.255Z,42.65
2017-07-27T08:48:33.312Z,44.93
2017-07-27T08:49:33.349Z,46.62
2017-07-27T08:50:33.399Z,47.42
2017-07-27T08:51:33.434Z,48.07
2017-07-27T08:52:33.497Z,49.97
2017-07-27T08:53:33.551Z,49.21
2017-07-27T08:54:33.570Z,51.32
2017-07-27T08:55:33.609Z,50.88
2017-07-27T08:56:33.672Z,51.22
2017-07-27T08:57:33.721Z,54.9
2017-07-27T08:58:33.778Z,56.34
2017-07-27T08:59:33.817Z,58.07
2017-07-27T09:00:33.853Z,58.17
2017-07-27T09:01:33.908Z,59.25
2017-07-27T09:02:33.948Z,59.71
2017-07-27T09:03:33.990Z,59
2017-07-27T09:04:34.013Z,58.9
2017-07-27T09:05:34.065Z,61.12
2017-07-27T09:06:34.126Z,62.07
2017-07-27T09:07:34.163Z,63.05
2017-07-27T09:08:34.214Z,61.77
2017-07-27T09:09:34.252Z,62.56
2017-07-27T09:10:34.294Z,61.58
2017-07-27T09:11:34.318Z,59.14
2017-07-27T09:12:34.385Z,57.87
2017-07-27T09:13:34.569Z,58.94
2017-07-27T09:14:34.466Z,59.17
2017-07-27T09:15:34.511Z,56.61
2017-07-27T09:16:34.557Z,53.83
2017-07-27T09:17:34.605Z,47.38
2017-07-27T09:18:34.788Z,47.21
2017-07-27T09:19:34.686Z,47.63
2017-07-27T09:20:34.718Z,46.74
2017-07-27T09:21:34.771Z,44.81
2017-07-27T09:22:34.816Z,44.95
2017-07-27T09:23:34.852Z,42.44
2017-07-27T09:24:34.909Z,42.52
2017-07-27T09:25:34.950Z,41.02
2017-07-27T09:26:34.994Z,42.35
2017-07-27T09:27:35.042Z,42.93
2017-07-27T09:28:35.080Z,42.72
2017-07-27T09:29:35.118Z,41.69
2017-07-27T09:30:35.185Z,40.46
2017-07-27T09:31:35.221Z,39.24
2017-07-27T09:32:35.270Z,38.78
2017-07-27T09:33:35.326Z,38.49
2017-07-27T09:34:35.362Z,40.16
2017-07-27T09:35:35.401Z,41.06
2017-07-27T09:36:35.460Z,42.25
2017-07-27T09:37:35.488Z,43.74
2017-07-27T09:38:35.555Z,45.49
2017-07-27T09:39:35.570Z,46.94
2017-07-27T09:40:35.624Z,49.87
2017-07-27T09:41:35.686Z,51.64
2017-07-27T09:42:35.738Z,54.31
2017-07-27T09:43:35.789Z,56.09
2017-07-27T09:44:35.822Z,59.27
2017-07-27T09:45:35.871Z,60.99
2017-07-27T09:46:35.908Z,60.7
2017-07-27T09:47:35.940Z,59.43
2017-07-27T09:48:35.996Z,59.85
2017-07-27T09:49:36.036Z,59.09
2017-07-27T09:50:36.083Z,58.22
2017-07-27T09:51:36.136Z,57.86
2017-07-27T09:52:36.164Z,58.27
2017-07-27T09:53:36.216Z,57.49
2017-07-27T09:54:36.244Z,57.49
2017-07-27T09:55:36.303Z,58.83
2017-07-27T09:56:36.324Z,57.66
2017-07-27T09:57:36.703Z,57.53
2017-07-27T09:58:36.443Z,58.51
2017-07-27T09:59:36.475Z,58.09
2017-07-27T10:00:36.516Z,59.07
2017-07-27T10:01:36.570Z,59.46
2017-07-27T10:02:36.607Z,57.87
2017-07-27T10:03:36.640Z,59.89
2017-07-27T10:04:36.689Z,61.33
2017-07-27T10:05:36.733Z,59.83
2017-07-27T10:06:36.772Z,59.8
2017-07-27T10:07:36.812Z,62.5
2017-07-27T10:08:36.840Z,64.42
2017-07-27T10:09:36.900Z,64.78
2017-07-27T10:10:36.941Z,66.05
2017-07-27T10:11:36.983Z,67.28
2017-07-27T10:12:37.025Z,68.26
2017-07-27T10:13:37.053Z,66.96
2017-07-27T10:14:37.106Z,66.08
2017-07-27T10:15:37.147Z,66.83
2017-07-27T10:16:37.186Z,66.69
2017-07-27T10:17:37.231Z,66.79
2017-07-27T10:18:37.270Z,66.56
2017-07-27T10:19:37.301Z,66.86
2017-07-27T10:20:37.347Z,69.64
2017-07-27T10:21:37.394Z,69.54
2017-07-27T10:22:37.424Z,71.1
2017-07-27T10:23:37.474Z,70.22
2017-07-27T10:24:37.529Z,70.97
2017-07-27T10:25:37.536Z,71.06
2017-07-27T10:26:37.597Z,70.73
2017-07-27T10:27:37.641Z,72.77
2017-07-27T10:28:37.675Z,74
2017-07-27T10:29:37.718Z,74.39
2017-07-27T10:30:37.752Z,73.58
2017-07-27T10:31:37.795Z,75.03
2017-07-27T10:32:37.842Z,73.44
2017-07-27T10:33:37.881Z,74.76
2017-07-27T10:34:37.920Z,74.28
2017-07-27T10:35:37.963Z,76.95
2017-07-27T10:36:38.006Z,77.73
2017-07-27T10:37:38.039Z,79.33
2017-07-27T10:38:38.081Z,80.4
2017-07-27T10:39:38.129Z,80.49
2017-07-27T10:40:38.142Z,82
2017-07-27T10:41:38.197Z,83.16
2017-07-27T10:42:38.239Z,83.45
2017-07-27T10:43:38.273Z,83.74
2017-07-27T10:44:38.322Z,82.93
2017-07-27T10:45:38.366Z,84.19
2017-07-27T10:46:38.382Z,84.67
2017-07-27T10:47:38.435Z,84.77
2017-07-27T10:48:38.494Z,84.24
2017-07-27T10:49:38.510Z,85.88
2017-07-27T10:50:38.531Z,86.94
2017-07-27T10:51:38.589Z,87.13
2017-07-27T10:52:38.630Z,85.59
2017-07-27T10:53:38.644Z,84.24
2017-07-27T10:54:38.702Z,84.91
2017-07-27T10:55:38.745Z,86.07
2017-07-27T10:56:38.783Z,86.17
2017-07-27T10:57:38.827Z,86.27
2017-07-27T10:58:38.841Z,85.78
2017-07-27T10:59:38.903Z,85.4
2017-07-27T11:00:38.938Z,84.77
2017-07-27T11:01:38.973Z,82.64
2017-07-27T11:02:39.014Z,82.45
2017-07-27T11:03:39.183Z,82.54
2017-07-27T11:04:39.112Z,82.54
2017-07-27T11:05:39.134Z,82.45
2017-07-27T11:06:39.172Z,81.77
2017-07-27T11:07:39.198Z,81.38
2017-07-27T11:08:39.224Z,82.45
2017-07-27T11:09:39.284Z,82.25
2017-07-27T11:10:39.332Z,83.18
2017-07-27T11:11:39.336Z,82.6
2017-07-27T11:12:39.399Z,82.6
2017-07-27T11:13:39.466Z,84.97
2017-07-27T11:14:39.475Z,86.8
2017-07-27T11:15:39.511Z,87.38
2017-07-27T11:16:39.546Z,87.96
2017-07-27T11:17:39.589Z,88.73
2017-07-27T11:18:39.628Z,88.83
2017-07-27T11:19:39.640Z,88.64
2017-07-27T11:20:39.707Z,87.09
2017-07-27T11:21:39.743Z,87.09
2017-07-27T11:22:39.779Z,88.25
2017-07-27T11:23:39.817Z,88.35
2017-07-27T11:24:39.838Z,89.03
2017-07-27T11:25:39.891Z,89.03
2017-07-27T11:26:39.929Z,89.17
2017-07-27T11:27:39.970Z,88.73
2017-07-27T11:28:40.012Z,88.35
2017-07-27T11:29:40.026Z,89.65
2017-07-27T11:30:40.082Z,88.97
2017-07-27T11:31:40.124Z,89.89
2017-07-27T11:32:40.164Z,89.51
2017-07-27T11:33:40.198Z,88.73
2017-07-27T11:34:40.233Z,88.83
2017-07-27T11:35:40.274Z,90.09
2017-07-27T11:36:40.307Z,90.67
2017-07-27T11:37:40.330Z,90.19
2017-07-27T11:38:40.387Z,89.51
2017-07-27T11:39:40.428Z,89.95
2017-07-27T11:40:40.466Z,90.81
2017-07-27T11:41:40.503Z,91.68
2017-07-27T11:42:40.542Z,92.36
2017-07-27T11:43:40.581Z,92.55
2017-07-27T11:44:40.597Z,91.97
2017-07-27T11:45:40.639Z,91.3
2017-07-27T11:46:40.691Z,92.36
2017-07-27T11:47:40.730Z,93.42
2017-07-27T11:48:40.769Z,93.04
2017-07-27T11:49:40.803Z,93.9
2017-07-27T11:50:40.839Z,93.23
2017-07-27T11:51:40.880Z,93.52
2017-07-27T11:52:40.912Z,94.2
2017-07-27T11:53:40.939Z,93.71
2017-07-27T11:54:40.990Z,94.1
2017-07-27T11:55:41.035Z,95.16
2017-07-27T11:56:41.073Z,97.52
2017-07-27T11:57:41.098Z,99.99
2017-07-27T11:58:41.140Z,99.99
2017-07-27T11:59:41.164Z,99.99
2017-07-27T12:00:41.216Z,99.99
2017-07-27T12:01:41.255Z,99.99
2017-07-27T12:02:41.271Z,99.99
2017-07-27T12:03:41.331Z,99.99
2017-07-27T12:04:41.366Z,99.99
2017-07-27T12:05:41.409Z,99.99
2017-07-27T12:06:41.481Z,99.99
2017-07-27T12:07:41.475Z,99.99
2017-07-27T12:08:41.502Z,99.99
2017-07-27T12:09:41.536Z,99.99
2017-07-27T12:10:41.589Z,99.99
2017-07-27T12:11:41.630Z,99.99
2017-07-27T12:12:41.660Z,99.99
2017-07-27T12:13:41.708Z,99.4
2017-07-27T12:14:41.726Z,99.74
2017-07-27T12:15:41.801Z,99.16
2017-07-27T12:16:41.822Z,97.47
2017-07-27T12:17:41.840Z,97.42
2017-07-27T12:18:41.890Z,96.66
2017-07-27T12:19:41.915Z,95.4
2017-07-27T12:20:41.963Z,95.3
2017-07-27T12:21:42.008Z,95.88
2017-07-27T12:22:42.035Z,96.66
2017-07-27T12:23:42.084Z,96.66
2017-07-27T12:24:42.101Z,96.89
2017-07-27T12:25:42.156Z,97.47
2017-07-27T12:26:42.185Z,97.72
2017-07-27T12:27:42.222Z,96.75
2017-07-27T12:28:42.266Z,96.46
2017-07-27T12:29:42.301Z,96.03
2017-07-27T12:30:42.332Z,94.67
2017-07-27T12:31:42.391Z,93.95
2017-07-27T12:32:42.416Z,92.11
2017-07-27T12:33:42.465Z,91.28
2017-07-27T12:34:42.470Z,91.28
2017-07-27T12:35:42.526Z,91.67
2017-07-27T12:36:42.567Z,90.22
2017-07-27T12:37:42.582Z,91.33
2017-07-27T12:38:42.646Z,92.98
2017-07-27T12:39:42.662Z,94.24
2017-07-27T12:40:42.713Z,94.19
2017-07-27T12:41:42.776Z,94.09
2017-07-27T12:42:42.791Z,94.04
2017-07-27T12:43:42.826Z,95.2
2017-07-27T12:44:42.843Z,96.36
2017-07-27T12:45:42.899Z,96.94
2017-07-27T12:46:42.946Z,94.53
2017-07-27T12:47:42.981Z,95.5
2017-07-27T12:48:43.020Z,96.84
2017-07-27T12:49:43.043Z,97.57
2017-07-27T12:50:43.095Z,97.86
2017-07-27T12:51:43.127Z,98.05
2017-07-27T12:52:43.166Z,97.86
2017-07-27T12:53:43.205Z,98.25
2017-07-27T12:54:43.222Z,98.87